Menasha, WI (54952)

3:37 PM CDT on August 27, 2016 (GMT -0500)
Near Heckrodt Wetland Reserve | | Change Station

Elev 755 ft 44.21 °N, 88.43 °W | Updated 7 seconds ago

Overcast
Overcast
65.2 °F
Feels Like 65.2 °F
N
1.0
Wind Variable Wind from ENE

Today
High -- | Low -- °F
--% Chance of Precip.
Yesterday
High -- | Low -- °F
Precip. -- in
Pressure 30.02 in
Visibility 6.0 miles
Clouds Overcast 800 ft
Dew Point 63 °F
Humidity 94%
Rainfall 0.25 in
Snow Depth Not available.
6:11 AM 7:37 PM
Waning Crescent, 21% visible
METAR KATW 271945Z 08006KT 6SM BR OVC008 18/17 A3002
Pressure 30.02 in
Visibility 6.0 miles
Clouds Overcast 800 ft
Dew Point 63 °F
Humidity 94%
Rainfall 0.25 in
Snow Depth Not available.
6:11 AM 7:37 PM
Waning Crescent, 21% visible
METAR KATW 271945Z 08006KT 6SM BR OVC008 18/17 A3002

10-Day Weather Forecast

Almanac

Astronomy

Aug. 27, 2016 Rise Set
Actual Time
Civil Twilight
Nautical Twilight
Astronomical Twilight
Moon
Length of Visible Light
Length of Day
Tomorrow will be .
, % of the Moon is Illuminated

Today's Extremes

State Highs State Lows

Community

WunderPhotos

Upload Photos

1,935,434 photos uploaded!

WunderBlog® & News

Nearby

Air Quality

  Air Quality AQ Index Pollutant
Not available.

Snow Depth

Station Depth Elevation

Earthquake Activity

City Distance Mag. Time & Date
Minimum magnitude displayed is 2.5.

Coastal Water Temperatures

Place Temperature

Stations

Nearby Weather Stations

Station Location Temp. Windchill Dew Point Humidity Wind Precip. Elev Updated Type
                   

Watches & Warnings

There are currently no watches in effect.